Terminal Aerodrome Forecast
Issued by NWS

Home | Current Version | Previous Version | Text Only | Print | Product List | Glossary On
Versions: 1 2 3 4 5 6 7 8 9 10 11 12 13 14 15 16
016
FTUS43 KAPX 202334
TAFAPN
TAF
KAPN 202334Z 2100/2124 VRB04KT P6SM FEW250
     FM211600 28006KT P6SM FEW200
     FM212000 09006KT P6SM SCT150=

USA.gov is the U.S. government's official web portal to all federal, state and local government web resources and services.